sensor_id;sensor_type;location;lat;lon;timestamp;temperature;humidity
34698;DHT22;61391;50.922;6.928;2023-04-29T00:01:09;14.10;99.90
34698;DHT22;61391;50.922;6.928;2023-04-29T00:03:35;14.00;99.90
34698;DHT22;61391;50.922;6.928;2023-04-29T00:06:00;14.00;99.90
34698;DHT22;61391;50.922;6.928;2023-04-29T00:08:26;13.80;99.90
34698;DHT22;61391;50.922;6.928;2023-04-29T00:10:52;13.90;99.90
34698;DHT22;61391;50.922;6.928;2023-04-29T00:13:18;13.90;99.90
34698;DHT22;61391;50.922;6.928;2023-04-29T00:15:43;14.00;99.90
34698;DHT22;61391;50.922;6.928;2023-04-29T00:18:09;13.90;99.90
34698;DHT22;61391;50.922;6.928;2023-04-29T00:20:35;13.80;99.90
34698;DHT22;61391;50.922;6.928;2023-04-29T00:23:03;14.00;99.90
34698;DHT22;61391;50.922;6.928;2023-04-29T00:25:29;13.80;99.90
34698;DHT22;61391;50.922;6.928;2023-04-29T00:27:57;13.80;99.90
34698;DHT22;61391;50.922;6.928;2023-04-29T00:30:27;13.70;99.90
34698;DHT22;61391;50.922;6.928;2023-04-29T00:32:57;13.70;99.90
34698;DHT22;61391;50.922;6.928;2023-04-29T00:35:25;13.70;99.90
34698;DHT22;61391;50.922;6.928;2023-04-29T00:37:51;13.70;99.90
34698;DHT22;61391;50.922;6.928;2023-04-29T00:40:16;13.80;99.90
34698;DHT22;61391;50.922;6.928;2023-04-29T00:42:43;13.70;99.90
34698;DHT22;61391;50.922;6.928;2023-04-29T00:45:10;13.70;99.90
34698;DHT22;61391;50.922;6.928;2023-04-29T00:47:37;13.70;99.90
34698;DHT22;61391;50.922;6.928;2023-04-29T00:50:07;13.80;99.90
34698;DHT22;61391;50.922;6.928;2023-04-29T00:52:33;13.90;99.90
34698;DHT22;61391;50.922;6.928;2023-04-29T00:55:00;13.90;99.90
34698;DHT22;61391;50.922;6.928;2023-04-29T00:57:27;13.80;99.90
34698;DHT22;61391;50.922;6.928;2023-04-29T00:59:56;13.70;99.90
34698;DHT22;61391;50.922;6.928;2023-04-29T01:02:23;13.80;99.90
34698;DHT22;61391;50.922;6.928;2023-04-29T01:04:51;13.90;99.90
34698;DHT22;61391;50.922;6.928;2023-04-29T01:07:30;13.80;99.90
34698;DHT22;61391;50.922;6.928;2023-04-29T01:10:13;13.80;99.90
34698;DHT22;61391;50.922;6.928;2023-04-29T01:12:44;13.60;99.90
34698;DHT22;61391;50.922;6.928;2023-04-29T01:18:14;13.70;99.90
34698;DHT22;61391;50.922;6.928;2023-04-29T01:20:45;13.60;99.90
34698;DHT22;61391;50.922;6.928;2023-04-29T01:23:11;13.60;99.90
34698;DHT22;61391;50.922;6.928;2023-04-29T01:25:40;13.60;99.90
34698;DHT22;61391;50.922;6.928;2023-04-29T01:28:20;13.50;99.90
34698;DHT22;61391;50.922;6.928;2023-04-29T01:31:14;13.40;99.90
34698;DHT22;61391;50.922;6.928;2023-04-29T01:33:58;13.40;99.90
34698;DHT22;61391;50.922;6.928;2023-04-29T01:36:46;13.50;99.90
34698;DHT22;61391;50.922;6.928;2023-04-29T01:39:19;13.60;99.90
34698;DHT22;61391;50.922;6.928;2023-04-29T01:41:59;13.60;99.90
34698;DHT22;61391;50.922;6.928;2023-04-29T01:44:30;13.60;99.90
34698;DHT22;61391;50.922;6.928;2023-04-29T01:47:00;13.60;99.90
34698;DHT22;61391;50.922;6.928;2023-04-29T01:49:34;13.60;99.90
34698;DHT22;61391;50.922;6.928;2023-04-29T01:52:02;13.40;99.90
34698;DHT22;61391;50.922;6.928;2023-04-29T01:54:30;13.50;99.90
34698;DHT22;61391;50.922;6.928;2023-04-29T01:56:59;13.70;99.90
34698;DHT22;61391;50.922;6.928;2023-04-29T01:59:25;13.50;99.90
34698;DHT22;61391;50.922;6.928;2023-04-29T02:01:57;13.60;99.90
34698;DHT22;61391;50.922;6.928;2023-04-29T02:04:26;13.60;99.90
34698;DHT22;61391;50.922;6.928;2023-04-29T02:06:54;13.60;99.90
34698;DHT22;61391;50.922;6.928;2023-04-29T02:09:19;13.60;99.90
34698;DHT22;61391;50.922;6.928;2023-04-29T02:11:48;13.60;99.90
34698;DHT22;61391;50.922;6.928;2023-04-29T02:14:16;13.60;99.90
34698;DHT22;61391;50.922;6.928;2023-04-29T02:16:45;13.70;99.90
34698;DHT22;61391;50.922;6.928;2023-04-29T02:19:12;13.40;99.90
34698;DHT22;61391;50.922;6.928;2023-04-29T02:21:39;13.40;99.90
34698;DHT22;61391;50.922;6.928;2023-04-29T02:24:06;13.40;99.90
34698;DHT22;61391;50.922;6.928;2023-04-29T02:26:32;13.30;99.90
34698;DHT22;61391;50.922;6.928;2023-04-29T02:28:58;13.30;99.90
34698;DHT22;61391;50.922;6.928;2023-04-29T02:31:25;13.40;99.90
34698;DHT22;61391;50.922;6.928;2023-04-29T02:33:54;13.50;99.90
34698;DHT22;61391;50.922;6.928;2023-04-29T02:36:22;13.40;99.90
34698;DHT22;61391;50.922;6.928;2023-04-29T02:38:50;13.50;99.90
34698;DHT22;61391;50.922;6.928;2023-04-29T02:41:19;13.50;99.90
34698;DHT22;61391;50.922;6.928;2023-04-29T02:43:45;13.70;99.90
34698;DHT22;61391;50.922;6.928;2023-04-29T02:46:11;13.70;99.90
34698;DHT22;61391;50.922;6.928;2023-04-29T02:48:38;13.60;99.90
34698;DHT22;61391;50.922;6.928;2023-04-29T02:51:05;13.60;99.90
34698;DHT22;61391;50.922;6.928;2023-04-29T02:53:31;13.60;99.90
34698;DHT22;61391;50.922;6.928;2023-04-29T02:55:56;13.40;99.90
34698;DHT22;61391;50.922;6.928;2023-04-29T02:58:22;13.40;99.90
34698;DHT22;61391;50.922;6.928;2023-04-29T03:00:51;13.50;99.90
34698;DHT22;61391;50.922;6.928;2023-04-29T03:03:18;13.50;99.90
34698;DHT22;61391;50.922;6.928;2023-04-29T03:05:43;13.40;99.90
34698;DHT22;61391;50.922;6.928;2023-04-29T03:08:09;13.40;99.90
34698;DHT22;61391;50.922;6.928;2023-04-29T03:10:35;13.40;99.90
34698;DHT22;61391;50.922;6.928;2023-04-29T03:13:01;13.40;99.90
34698;DHT22;61391;50.922;6.928;2023-04-29T03:15:28;13.30;99.90
34698;DHT22;61391;50.922;6.928;2023-04-29T03:17:54;13.30;99.90
34698;DHT22;61391;50.922;6.928;2023-04-29T03:20:20;13.30;99.90
34698;DHT22;61391;50.922;6.928;2023-04-29T03:22:46;13.30;99.90
34698;DHT22;61391;50.922;6.928;2023-04-29T03:25:12;13.30;99.90
34698;DHT22;61391;50.922;6.928;2023-04-29T03:27:44;13.20;99.90
34698;DHT22;61391;50.922;6.928;2023-04-29T03:30:10;13.10;99.90
34698;DHT22;61391;50.922;6.928;2023-04-29T03:32:36;13.10;99.90
34698;DHT22;61391;50.922;6.928;2023-04-29T03:35:02;13.00;99.90
34698;DHT22;61391;50.922;6.928;2023-04-29T03:37:30;12.90;99.90
34698;DHT22;61391;50.922;6.928;2023-04-29T03:39:58;12.90;99.90
34698;DHT22;61391;50.922;6.928;2023-04-29T03:42:25;12.90;99.90
34698;DHT22;61391;50.922;6.928;2023-04-29T03:44:52;12.70;99.90
34698;DHT22;61391;50.922;6.928;2023-04-29T03:54:02;12.50;99.90
34698;DHT22;61391;50.922;6.928;2023-04-29T03:56:27;12.60;99.90
34698;DHT22;61391;50.922;6.928;2023-04-29T03:58:53;12.60;99.90
34698;DHT22;61391;50.922;6.928;2023-04-29T04:01:18;12.60;99.90
34698;DHT22;61391;50.922;6.928;2023-04-29T04:03:44;12.70;99.90
34698;DHT22;61391;50.922;6.928;2023-04-29T04:06:10;12.60;99.90
34698;DHT22;61391;50.922;6.928;2023-04-29T04:08:36;12.40;99.90
34698;DHT22;61391;50.922;6.928;2023-04-29T04:11:01;12.50;99.90
34698;DHT22;61391;50.922;6.928;2023-04-29T04:13:31;12.40;99.90
34698;DHT22;61391;50.922;6.928;2023-04-29T04:15:56;12.20;99.90
34698;DHT22;61391;50.922;6.928;2023-04-29T04:18:22;12.00;99.90
34698;DHT22;61391;50.922;6.928;2023-04-29T04:20:48;11.90;99.90
34698;DHT22;61391;50.922;6.928;2023-04-29T04:23:14;12.20;99.90
34698;DHT22;61391;50.922;6.928;2023-04-29T04:25:49;12.00;99.90
34698;DHT22;61391;50.922;6.928;2023-04-29T04:28:14;12.20;99.90
34698;DHT22;61391;50.922;6.928;2023-04-29T04:30:40;12.30;99.90
34698;DHT22;61391;50.922;6.928;2023-04-29T04:33:07;12.20;99.90
34698;DHT22;61391;50.922;6.928;2023-04-29T04:35:32;12.20;99.90
34698;DHT22;61391;50.922;6.928;2023-04-29T04:37:58;12.10;99.90
34698;DHT22;61391;50.922;6.928;2023-04-29T04:40:23;12.10;99.90
34698;DHT22;61391;50.922;6.928;2023-04-29T04:42:49;12.20;99.90
34698;DHT22;61391;50.922;6.928;2023-04-29T04:45:15;12.40;99.90
34698;DHT22;61391;50.922;6.928;2023-04-29T04:47:40;12.30;99.90
34698;DHT22;61391;50.922;6.928;2023-04-29T04:50:07;12.20;99.90
34698;DHT22;61391;50.922;6.928;2023-04-29T04:52:33;12.30;99.90
34698;DHT22;61391;50.922;6.928;2023-04-29T04:54:59;12.30;99.90
34698;DHT22;61391;50.922;6.928;2023-04-29T04:57:24;12.30;99.90
34698;DHT22;61391;50.922;6.928;2023-04-29T04:59:50;12.20;99.90
34698;DHT22;61391;50.922;6.928;2023-04-29T05:02:16;12.00;99.90
34698;DHT22;61391;50.922;6.928;2023-04-29T05:04:41;12.00;99.90
34698;DHT22;61391;50.922;6.928;2023-04-29T05:07:07;12.00;99.90
34698;DHT22;61391;50.922;6.928;2023-04-29T05:09:33;12.00;99.90
34698;DHT22;61391;50.922;6.928;2023-04-29T05:11:58;11.90;99.90
34698;DHT22;61391;50.922;6.928;2023-04-29T05:14:25;12.00;99.90
34698;DHT22;61391;50.922;6.928;2023-04-29T05:16:51;12.10;99.90
34698;DHT22;61391;50.922;6.928;2023-04-29T05:19:17;12.10;99.90
34698;DHT22;61391;50.922;6.928;2023-04-29T05:21:43;12.30;99.90
34698;DHT22;61391;50.922;6.928;2023-04-29T05:24:08;12.20;99.90
34698;DHT22;61391;50.922;6.928;2023-04-29T05:26:34;12.30;99.90
34698;DHT22;61391;50.922;6.928;2023-04-29T05:29:00;12.30;99.90
34698;DHT22;61391;50.922;6.928;2023-04-29T05:31:26;12.10;99.90
34698;DHT22;61391;50.922;6.928;2023-04-29T05:33:52;12.10;99.90
34698;DHT22;61391;50.922;6.928;2023-04-29T05:36:18;12.20;99.90
34698;DHT22;61391;50.922;6.928;2023-04-29T05:42:06;12.30;99.90
34698;DHT22;61391;50.922;6.928;2023-04-29T05:44:32;12.10;99.90
34698;DHT22;61391;50.922;6.928;2023-04-29T05:46:57;12.20;99.90
34698;DHT22;61391;50.922;6.928;2023-04-29T05:49:23;12.20;99.90
34698;DHT22;61391;50.922;6.928;2023-04-29T05:51:49;12.10;99.90
34698;DHT22;61391;50.922;6.928;2023-04-29T05:54:14;12.10;99.90
34698;DHT22;61391;50.922;6.928;2023-04-29T05:56:40;12.20;99.90
34698;DHT22;61391;50.922;6.928;2023-04-29T05:59:07;12.30;99.90
34698;DHT22;61391;50.922;6.928;2023-04-29T06:01:33;12.30;99.90
34698;DHT22;61391;50.922;6.928;2023-04-29T06:03:58;12.20;99.90
34698;DHT22;61391;50.922;6.928;2023-04-29T06:06:24;12.10;99.90
34698;DHT22;61391;50.922;6.928;2023-04-29T06:08:50;12.20;99.90
34698;DHT22;61391;50.922;6.928;2023-04-29T06:11:16;12.30;99.90
34698;DHT22;61391;50.922;6.928;2023-04-29T06:13:41;12.20;99.90
34698;DHT22;61391;50.922;6.928;2023-04-29T06:16:07;12.20;99.90
34698;DHT22;61391;50.922;6.928;2023-04-29T06:18:33;12.30;99.90
34698;DHT22;61391;50.922;6.928;2023-04-29T06:20:58;12.30;99.90
34698;DHT22;61391;50.922;6.928;2023-04-29T06:23:25;12.30;99.90
34698;DHT22;61391;50.922;6.928;2023-04-29T06:25:51;12.40;99.90
34698;DHT22;61391;50.922;6.928;2023-04-29T06:28:16;12.40;99.90
34698;DHT22;61391;50.922;6.928;2023-04-29T06:30:43;12.50;99.90
34698;DHT22;61391;50.922;6.928;2023-04-29T06:33:11;12.50;99.90
34698;DHT22;61391;50.922;6.928;2023-04-29T06:35:39;12.50;99.90
34698;DHT22;61391;50.922;6.928;2023-04-29T06:38:07;12.60;99.90
34698;DHT22;61391;50.922;6.928;2023-04-29T06:40:34;12.60;99.90
34698;DHT22;61391;50.922;6.928;2023-04-29T06:42:59;12.60;99.90
34698;DHT22;61391;50.922;6.928;2023-04-29T06:45:26;12.80;99.90
34698;DHT22;61391;50.922;6.928;2023-04-29T06:47:52;12.80;99.90
34698;DHT22;61391;50.922;6.928;2023-04-29T06:50:18;12.80;99.90
34698;DHT22;61391;50.922;6.928;2023-04-29T06:52:44;12.80;99.90
34698;DHT22;61391;50.922;6.928;2023-04-29T06:55:10;12.80;99.90
34698;DHT22;61391;50.922;6.928;2023-04-29T06:57:36;12.80;99.90
34698;DHT22;61391;50.922;6.928;2023-04-29T07:00:03;12.80;99.90
34698;DHT22;61391;50.922;6.928;2023-04-29T07:02:31;12.90;99.90
34698;DHT22;61391;50.922;6.928;2023-04-29T07:04:57;13.10;99.90
34698;DHT22;61391;50.922;6.928;2023-04-29T07:07:23;13.20;99.90
34698;DHT22;61391;50.922;6.928;2023-04-29T07:09:48;12.80;99.90
34698;DHT22;61391;50.922;6.928;2023-04-29T07:12:17;12.80;99.90
34698;DHT22;61391;50.922;6.928;2023-04-29T07:14:44;13.00;99.90
34698;DHT22;61391;50.922;6.928;2023-04-29T07:17:10;13.30;99.90
34698;DHT22;61391;50.922;6.928;2023-04-29T07:19:35;13.40;99.90
34698;DHT22;61391;50.922;6.928;2023-04-29T07:22:01;13.40;99.90
34698;DHT22;61391;50.922;6.928;2023-04-29T07:24:27;13.40;99.90
34698;DHT22;61391;50.922;6.928;2023-04-29T07:26:53;13.60;99.90
34698;DHT22;61391;50.922;6.928;2023-04-29T07:29:40;13.60;99.90
34698;DHT22;61391;50.922;6.928;2023-04-29T07:32:06;13.60;99.90
34698;DHT22;61391;50.922;6.928;2023-04-29T07:34:32;13.40;99.90
34698;DHT22;61391;50.922;6.928;2023-04-29T07:36:59;13.60;99.90
34698;DHT22;61391;50.922;6.928;2023-04-29T07:39:24;13.60;99.90
34698;DHT22;61391;50.922;6.928;2023-04-29T07:41:50;13.60;99.90
34698;DHT22;61391;50.922;6.928;2023-04-29T07:44:16;13.80;99.90
34698;DHT22;61391;50.922;6.928;2023-04-29T07:46:42;14.10;99.90
34698;DHT22;61391;50.922;6.928;2023-04-29T07:49:07;14.30;99.90
34698;DHT22;61391;50.922;6.928;2023-04-29T07:54:55;14.50;99.90
34698;DHT22;61391;50.922;6.928;2023-04-29T07:57:21;14.60;99.90
34698;DHT22;61391;50.922;6.928;2023-04-29T07:59:51;14.60;99.90
34698;DHT22;61391;50.922;6.928;2023-04-29T08:02:17;14.50;99.90
34698;DHT22;61391;50.922;6.928;2023-04-29T08:04:42;14.10;99.90
34698;DHT22;61391;50.922;6.928;2023-04-29T08:07:08;14.00;99.90
34698;DHT22;61391;50.922;6.928;2023-04-29T08:09:33;14.10;99.90
34698;DHT22;61391;50.922;6.928;2023-04-29T08:11:59;14.20;99.90
34698;DHT22;61391;50.922;6.928;2023-04-29T08:14:26;14.20;99.90
34698;DHT22;61391;50.922;6.928;2023-04-29T08:16:52;14.10;99.90
34698;DHT22;61391;50.922;6.928;2023-04-29T08:19:24;14.10;99.90
34698;DHT22;61391;50.922;6.928;2023-04-29T08:21:50;13.90;99.90
34698;DHT22;61391;50.922;6.928;2023-04-29T08:24:16;13.90;99.90
34698;DHT22;61391;50.922;6.928;2023-04-29T08:26:42;13.90;99.90
34698;DHT22;61391;50.922;6.928;2023-04-29T08:29:08;13.80;99.90
34698;DHT22;61391;50.922;6.928;2023-04-29T08:31:34;13.70;99.90
34698;DHT22;61391;50.922;6.928;2023-04-29T08:33:59;13.60;99.90
34698;DHT22;61391;50.922;6.928;2023-04-29T08:36:25;13.70;99.90
34698;DHT22;61391;50.922;6.928;2023-04-29T08:38:54;13.80;99.90
34698;DHT22;61391;50.922;6.928;2023-04-29T08:41:20;13.80;99.90
34698;DHT22;61391;50.922;6.928;2023-04-29T08:43:46;13.90;99.90
34698;DHT22;61391;50.922;6.928;2023-04-29T08:46:12;14.20;99.90
34698;DHT22;61391;50.922;6.928;2023-04-29T08:48:39;14.50;99.90
34698;DHT22;61391;50.922;6.928;2023-04-29T08:51:06;14.80;99.90
34698;DHT22;61391;50.922;6.928;2023-04-29T08:53:31;14.70;99.90
34698;DHT22;61391;50.922;6.928;2023-04-29T08:56:07;14.80;99.90
34698;DHT22;61391;50.922;6.928;2023-04-29T08:58:33;14.80;99.90
34698;DHT22;61391;50.922;6.928;2023-04-29T09:01:00;14.60;99.90
34698;DHT22;61391;50.922;6.928;2023-04-29T09:03:33;14.50;99.90
34698;DHT22;61391;50.922;6.928;2023-04-29T09:06:02;15.00;99.90
34698;DHT22;61391;50.922;6.928;2023-04-29T09:08:27;15.10;99.90
34698;DHT22;61391;50.922;6.928;2023-04-29T09:10:55;15.40;99.90
34698;DHT22;61391;50.922;6.928;2023-04-29T09:13:27;15.50;99.90
34698;DHT22;61391;50.922;6.928;2023-04-29T09:15:55;15.50;99.90
34698;DHT22;61391;50.922;6.928;2023-04-29T09:21:25;16.20;99.90
34698;DHT22;61391;50.922;6.928;2023-04-29T09:23:56;16.60;99.90
34698;DHT22;61391;50.922;6.928;2023-04-29T09:26:22;16.80;99.90
34698;DHT22;61391;50.922;6.928;2023-04-29T09:29:10;16.80;99.90
34698;DHT22;61391;50.922;6.928;2023-04-29T09:31:38;16.50;99.90
34698;DHT22;61391;50.922;6.928;2023-04-29T09:34:04;16.40;99.90
34698;DHT22;61391;50.922;6.928;2023-04-29T09:36:46;16.20;99.90
34698;DHT22;61391;50.922;6.928;2023-04-29T09:39:15;16.00;99.90
34698;DHT22;61391;50.922;6.928;2023-04-29T09:41:56;15.90;99.90
34698;DHT22;61391;50.922;6.928;2023-04-29T09:44:30;16.10;99.90
34698;DHT22;61391;50.922;6.928;2023-04-29T09:47:01;16.00;99.90
34698;DHT22;61391;50.922;6.928;2023-04-29T09:49:34;16.00;99.90
34698;DHT22;61391;50.922;6.928;2023-04-29T09:52:06;16.10;99.90
34698;DHT22;61391;50.922;6.928;2023-04-29T09:54:33;15.90;99.90
34698;DHT22;61391;50.922;6.928;2023-04-29T10:00:23;15.30;99.90
34698;DHT22;61391;50.922;6.928;2023-04-29T10:02:50;15.40;99.90
34698;DHT22;61391;50.922;6.928;2023-04-29T10:05:18;15.40;99.90
34698;DHT22;61391;50.922;6.928;2023-04-29T10:07:46;15.50;99.90
34698;DHT22;61391;50.922;6.928;2023-04-29T10:10:15;15.10;99.90
34698;DHT22;61391;50.922;6.928;2023-04-29T10:12:42;15.00;99.90
34698;DHT22;61391;50.922;6.928;2023-04-29T10:15:32;15.00;99.90
34698;DHT22;61391;50.922;6.928;2023-04-29T10:21:17;14.90;99.90
34698;DHT22;61391;50.922;6.928;2023-04-29T10:23:46;15.00;99.90
34698;DHT22;61391;50.922;6.928;2023-04-29T10:26:14;15.10;99.90
34698;DHT22;61391;50.922;6.928;2023-04-29T10:28:42;14.80;99.90
34698;DHT22;61391;50.922;6.928;2023-04-29T10:31:42;15.00;99.90
34698;DHT22;61391;50.922;6.928;2023-04-29T10:34:10;14.60;99.90
34698;DHT22;61391;50.922;6.928;2023-04-29T10:36:37;14.70;99.90
34698;DHT22;61391;50.922;6.928;2023-04-29T10:39:04;14.70;99.90
34698;DHT22;61391;50.922;6.928;2023-04-29T10:41:36;14.70;99.90
34698;DHT22;61391;50.922;6.928;2023-04-29T10:44:06;15.20;99.90
34698;DHT22;61391;50.922;6.928;2023-04-29T10:46:32;14.80;99.90
34698;DHT22;61391;50.922;6.928;2023-04-29T10:49:02;14.70;99.90
34698;DHT22;61391;50.922;6.928;2023-04-29T10:51:40;14.60;99.90
34698;DHT22;61391;50.922;6.928;2023-04-29T10:57:29;14.60;99.90
34698;DHT22;61391;50.922;6.928;2023-04-29T10:59:54;14.40;99.90
34698;DHT22;61391;50.922;6.928;2023-04-29T11:06:02;14.30;99.90
34698;DHT22;61391;50.922;6.928;2023-04-29T11:08:36;14.00;99.90
34698;DHT22;61391;50.922;6.928;2023-04-29T11:11:04;14.10;99.90
34698;DHT22;61391;50.922;6.928;2023-04-29T11:13:31;14.20;99.90
34698;DHT22;61391;50.922;6.928;2023-04-29T11:16:09;14.30;99.90
34698;DHT22;61391;50.922;6.928;2023-04-29T11:19:22;14.40;99.90
34698;DHT22;61391;50.922;6.928;2023-04-29T11:21:23;14.40;99.90
34698;DHT22;61391;50.922;6.928;2023-04-29T11:23:57;14.20;99.90
34698;DHT22;61391;50.922;6.928;2023-04-29T11:26:23;14.20;99.90
34698;DHT22;61391;50.922;6.928;2023-04-29T11:28:50;14.00;99.90
34698;DHT22;61391;50.922;6.928;2023-04-29T11:31:16;14.10;99.90
34698;DHT22;61391;50.922;6.928;2023-04-29T11:37:04;14.50;99.90
34698;DHT22;61391;50.922;6.928;2023-04-29T11:39:35;14.60;99.90
34698;DHT22;61391;50.922;6.928;2023-04-29T11:42:05;14.60;99.90
34698;DHT22;61391;50.922;6.928;2023-04-29T11:44:34;14.70;99.90
34698;DHT22;61391;50.922;6.928;2023-04-29T11:47:05;14.60;99.90
34698;DHT22;61391;50.922;6.928;2023-04-29T11:49:31;14.50;99.90
34698;DHT22;61391;50.922;6.928;2023-04-29T11:51:57;14.60;99.90
34698;DHT22;61391;50.922;6.928;2023-04-29T11:54:25;14.50;99.90
34698;DHT22;61391;50.922;6.928;2023-04-29T11:56:53;14.40;99.90
34698;DHT22;61391;50.922;6.928;2023-04-29T11:59:19;14.60;99.90
34698;DHT22;61391;50.922;6.928;2023-04-29T12:01:45;14.80;99.90
34698;DHT22;61391;50.922;6.928;2023-04-29T12:04:11;14.70;99.90
34698;DHT22;61391;50.922;6.928;2023-04-29T12:06:36;14.80;99.90
34698;DHT22;61391;50.922;6.928;2023-04-29T12:09:02;14.80;99.90
34698;DHT22;61391;50.922;6.928;2023-04-29T12:11:29;14.70;99.90
34698;DHT22;61391;50.922;6.928;2023-04-29T12:13:55;14.90;99.90
34698;DHT22;61391;50.922;6.928;2023-04-29T12:16:31;14.80;99.90
34698;DHT22;61391;50.922;6.928;2023-04-29T12:18:58;14.60;99.90
34698;DHT22;61391;50.922;6.928;2023-04-29T12:21:24;14.70;99.90
34698;DHT22;61391;50.922;6.928;2023-04-29T12:23:50;14.90;99.90
34698;DHT22;61391;50.922;6.928;2023-04-29T12:26:17;15.10;99.90
34698;DHT22;61391;50.922;6.928;2023-04-29T12:28:45;15.20;99.90
34698;DHT22;61391;50.922;6.928;2023-04-29T12:31:14;15.20;99.90
34698;DHT22;61391;50.922;6.928;2023-04-29T12:33:42;15.60;99.90
34698;DHT22;61391;50.922;6.928;2023-04-29T12:36:17;15.70;99.90
34698;DHT22;61391;50.922;6.928;2023-04-29T12:38:44;15.80;99.90
34698;DHT22;61391;50.922;6.928;2023-04-29T12:41:35;16.00;99.90
34698;DHT22;61391;50.922;6.928;2023-04-29T12:44:01;16.10;99.90
34698;DHT22;61391;50.922;6.928;2023-04-29T12:46:33;16.40;99.90
34698;DHT22;61391;50.922;6.928;2023-04-29T12:49:01;16.10;99.90
34698;DHT22;61391;50.922;6.928;2023-04-29T12:51:32;16.50;99.90
34698;DHT22;61391;50.922;6.928;2023-04-29T12:54:02;16.70;99.90
34698;DHT22;61391;50.922;6.928;2023-04-29T12:56:29;16.60;99.90
34698;DHT22;61391;50.922;6.928;2023-04-29T12:58:55;16.70;99.90
34698;DHT22;61391;50.922;6.928;2023-04-29T13:01:21;16.70;99.90
34698;DHT22;61391;50.922;6.928;2023-04-29T13:03:46;16.80;99.90
34698;DHT22;61391;50.922;6.928;2023-04-29T13:06:14;16.70;99.90
34698;DHT22;61391;50.922;6.928;2023-04-29T13:08:39;16.70;99.90
34698;DHT22;61391;50.922;6.928;2023-04-29T13:11:06;16.90;99.90
34698;DHT22;61391;50.922;6.928;2023-04-29T13:13:31;17.00;99.90
34698;DHT22;61391;50.922;6.928;2023-04-29T13:15:57;17.10;99.90
34698;DHT22;61391;50.922;6.928;2023-04-29T13:18:23;17.40;99.90
34698;DHT22;61391;50.922;6.928;2023-04-29T13:20:48;17.40;99.90
34698;DHT22;61391;50.922;6.928;2023-04-29T13:23:29;18.00;99.90
34698;DHT22;61391;50.922;6.928;2023-04-29T13:25:56;18.30;99.90
34698;DHT22;61391;50.922;6.928;2023-04-29T13:28:22;18.60;99.90
34698;DHT22;61391;50.922;6.928;2023-04-29T13:30:48;18.60;99.90
34698;DHT22;61391;50.922;6.928;2023-04-29T13:33:15;18.20;99.90
34698;DHT22;61391;50.922;6.928;2023-04-29T13:35:40;18.20;99.90
34698;DHT22;61391;50.922;6.928;2023-04-29T13:38:07;17.80;99.90
34698;DHT22;61391;50.922;6.928;2023-04-29T13:40:32;17.90;99.90
34698;DHT22;61391;50.922;6.928;2023-04-29T13:42:59;18.00;99.90
34698;DHT22;61391;50.922;6.928;2023-04-29T13:48:48;18.20;99.90
34698;DHT22;61391;50.922;6.928;2023-04-29T13:55:15;17.70;99.90
34698;DHT22;61391;50.922;6.928;2023-04-29T13:57:51;18.00;99.90
34698;DHT22;61391;50.922;6.928;2023-04-29T14:07:10;18.10;99.90
34698;DHT22;61391;50.922;6.928;2023-04-29T14:09:42;18.30;99.90
34698;DHT22;61391;50.922;6.928;2023-04-29T14:12:08;18.50;99.90
34698;DHT22;61391;50.922;6.928;2023-04-29T14:14:33;18.70;99.90
34698;DHT22;61391;50.922;6.928;2023-04-29T14:17:03;18.60;99.90
34698;DHT22;61391;50.922;6.928;2023-04-29T14:19:29;18.60;99.90
34698;DHT22;61391;50.922;6.928;2023-04-29T14:21:54;18.60;99.90
34698;DHT22;61391;50.922;6.928;2023-04-29T14:24:20;18.60;99.90
34698;DHT22;61391;50.922;6.928;2023-04-29T14:26:46;18.50;99.90
34698;DHT22;61391;50.922;6.928;2023-04-29T14:32:34;18.50;99.90
34698;DHT22;61391;50.922;6.928;2023-04-29T14:35:00;18.40;99.90
34698;DHT22;61391;50.922;6.928;2023-04-29T14:37:25;18.20;99.90
34698;DHT22;61391;50.922;6.928;2023-04-29T14:39:51;18.20;99.90
34698;DHT22;61391;50.922;6.928;2023-04-29T14:42:17;18.00;99.90
34698;DHT22;61391;50.922;6.928;2023-04-29T14:44:43;17.70;99.90
34698;DHT22;61391;50.922;6.928;2023-04-29T14:47:08;17.20;99.90
34698;DHT22;61391;50.922;6.928;2023-04-29T14:49:34;17.00;99.90
34698;DHT22;61391;50.922;6.928;2023-04-29T14:52:00;17.30;99.90
34698;DHT22;61391;50.922;6.928;2023-04-29T14:54:25;17.40;99.90
34698;DHT22;61391;50.922;6.928;2023-04-29T14:56:52;17.50;99.90
34698;DHT22;61391;50.922;6.928;2023-04-29T14:59:18;17.20;99.90
34698;DHT22;61391;50.922;6.928;2023-04-29T15:01:43;17.20;99.90
34698;DHT22;61391;50.922;6.928;2023-04-29T15:04:09;17.10;99.90
34698;DHT22;61391;50.922;6.928;2023-04-29T15:06:37;17.10;99.90
34698;DHT22;61391;50.922;6.928;2023-04-29T15:09:03;17.10;99.90
34698;DHT22;61391;50.922;6.928;2023-04-29T15:11:29;17.30;99.90
34698;DHT22;61391;50.922;6.928;2023-04-29T15:13:59;17.50;99.90
34698;DHT22;61391;50.922;6.928;2023-04-29T15:16:25;17.50;99.90
34698;DHT22;61391;50.922;6.928;2023-04-29T15:18:52;17.50;99.90
34698;DHT22;61391;50.922;6.928;2023-04-29T15:21:18;17.60;99.90
34698;DHT22;61391;50.922;6.928;2023-04-29T15:23:44;17.50;99.90
34698;DHT22;61391;50.922;6.928;2023-04-29T15:26:09;17.40;99.90
34698;DHT22;61391;50.922;6.928;2023-04-29T15:28:35;17.50;99.90
34698;DHT22;61391;50.922;6.928;2023-04-29T15:31:01;17.50;99.90
34698;DHT22;61391;50.922;6.928;2023-04-29T15:33:30;17.50;99.90
34698;DHT22;61391;50.922;6.928;2023-04-29T15:35:57;17.60;99.90
34698;DHT22;61391;50.922;6.928;2023-04-29T15:38:23;17.60;99.90
34698;DHT22;61391;50.922;6.928;2023-04-29T15:40:48;17.50;99.90
34698;DHT22;61391;50.922;6.928;2023-04-29T15:43:14;17.50;99.90
34698;DHT22;61391;50.922;6.928;2023-04-29T15:45:40;17.60;99.90
34698;DHT22;61391;50.922;6.928;2023-04-29T15:48:06;17.60;99.90
34698;DHT22;61391;50.922;6.928;2023-04-29T15:50:32;17.60;99.90
34698;DHT22;61391;50.922;6.928;2023-04-29T15:59:42;17.30;99.90
34698;DHT22;61391;50.922;6.928;2023-04-29T16:02:07;17.40;99.90
34698;DHT22;61391;50.922;6.928;2023-04-29T16:04:45;17.50;99.90
34698;DHT22;61391;50.922;6.928;2023-04-29T16:07:11;17.40;99.90
34698;DHT22;61391;50.922;6.928;2023-04-29T16:09:36;17.40;99.90
34698;DHT22;61391;50.922;6.928;2023-04-29T16:12:02;17.30;99.90
34698;DHT22;61391;50.922;6.928;2023-04-29T16:14:28;17.20;99.90
34698;DHT22;61391;50.922;6.928;2023-04-29T16:17:08;17.20;99.90
34698;DHT22;61391;50.922;6.928;2023-04-29T16:19:34;17.30;99.90
34698;DHT22;61391;50.922;6.928;2023-04-29T16:22:30;17.20;99.90
34698;DHT22;61391;50.922;6.928;2023-04-29T16:24:56;17.10;99.90
34698;DHT22;61391;50.922;6.928;2023-04-29T16:27:21;17.10;99.90
34698;DHT22;61391;50.922;6.928;2023-04-29T16:29:47;17.10;99.90
34698;DHT22;61391;50.922;6.928;2023-04-29T16:32:12;17.10;99.90
34698;DHT22;61391;50.922;6.928;2023-04-29T16:34:38;17.00;99.90